EDEK1: Walnut River, Eldorado, KS

Data processed at Sun Apr 30 2017 22:04


All information presented herein is the property of the government of the United States of America and may be revised or deleted at any time without prior notice.
Dissemination of this information without the expressed written consent of the Public Affairs Office, Tulsa District U.S. Army Corps of Engineers is strictly prohibited.
These data are gathered electronically and, as presented, have not undergone any form of quality control. These data are not guaranteed to be valid or correct.
Go to home page.
Go to station list.
Go to station map.

Upstream stations:

Downstream station:
Previous Day
Next Day
Current Day
    
SHEF ID:       EDEK1     WALNUT R AT HWY 54 E OF EL DORAD
STATION TYPE:  

               PRECIP     STAGE  RIV-FLOW   VOLTAGE  BAT-LOAD
                   in        ft       cfs      volt      volt
              Ccp-Rev   Ccp-Rev   Ccp-Rev   Ccp-Rev   Ccp-Rev
(US/Central)
04/30 00:00      ----      4.55       956     12.73     12.57
04/30 01:00      ----      4.47       912     12.73     12.57
04/30 02:00      ----      4.40       873     12.73     12.57
04/30 03:00      ----      4.28       810     12.73     12.57
04/30 04:00      ----      4.17       755     12.73     12.57
04/30 05:00      ----      4.11       725     12.73     12.57
04/30 06:00      ----      4.12       730     12.73     12.57
04/30 07:00      ----      4.12       730     12.73     12.57
04/30 08:00      ----      4.38       863     12.73     12.57
04/30 09:00      ----      4.67      1026     12.97     12.57
04/30 10:00      ----      4.98      1217     13.21     12.81
04/30 11:00      ----      5.17      1344     13.29     12.97
04/30 12:00      ----      5.24      1392     13.37     13.05
04/30 13:00      ----      5.19      1357     13.37     13.21
04/30 14:00      ----      5.18      1350     13.44     13.29
04/30 15:00      ----      5.15      1330     13.44     13.37
04/30 16:00      ----      5.08      1283     13.44     13.21
04/30 17:00      ----      5.00      1230     13.37     13.21
04/30 18:00      ----      4.89      1160     13.21     13.13
04/30 19:00      ----      4.78      1092     13.13     13.05
04/30 20:00      ----      4.68      1031     13.05     12.89
04/30 21:00      ----      4.55       956     13.05     12.81
04/30 22:00      ----      4.47      ----     12.97     12.81
04/30 23:00      ----      ----      ----      ----      ----